Orel 5 — EMFH — position and weather

sailwx.info

Track history (hours):
 
Tides and Currents Weather Stations Pressure Air Temp Water Temp Dewpoint Dewpoint Depression Visibility Wind Speed Wind Dir Waves Ship Positions

Orel 5

Last reported at 2016-Sep-24 22:32 UTC. Time now 2016-Sep-25 00:18 UTC.
Position N 47°52' E 035°06'.

Length 108 m; draft 2.2 m.

Type: Cargo ship. MMSI: 272059000.

Date/timePositionNaut miles runAvg speedWind from/ knotsBaromVisibWave heightAir tempDewpointWater temp
2016-Sep-24 22:32N 47°52' E 035°06'0 0.0
2016-Sep-24 21:20N 47°52' E 035°06'0 0.0
2016-Sep-24 19:32N 47°52' E 035°06'0 0.0
2016-Sep-24 18:32N 47°52' E 035°06'0 0.0
2016-Sep-24 17:32N 47°52' E 035°06'0 0.0
2016-Sep-24 16:32N 47°52' E 035°06'0 0.0
2016-Sep-24 14:32N 47°52' E 035°06'0 0.0
2016-Sep-24 12:32N 47°52' E 035°06'0 0.1
2016-Sep-24 10:33N 47°52' E 035°06'0 0.1
2016-Sep-24 09:33N 47°52' E 035°06'3 0.5
2016-Sep-24 03:33N 47°49' E 035°08'1 1.3
2016-Sep-24 02:33N 47°49' E 035°09'0 0.0
2016-Sep-24 01:33N 47°49' E 035°09'0 0.0
2016-Sep-24 00:33N 47°49' E 035°09'0 0.0
2016-Sep-23 19:33N 47°49' E 035°09'0 0.0
2016-Sep-23 17:33N 47°49' E 035°09'0 0.0
2016-Sep-23 16:33N 47°49' E 035°09'0 0.0
2016-Sep-23 15:33N 47°49' E 035°09'0 0.0
2016-Sep-23 13:33N 47°49' E 035°09'146 5.8
2016-Sep-22 12:12N 46°32' E 032°06'  
Track history (hours):
 
Tides and Currents Weather Stations Pressure Air Temp Water Temp Dewpoint Dewpoint Depression Visibility Wind Speed Wind Dir Waves Ship Positions

Orel 5

Last reported at 2016-Sep-24 22:32 UTC. Time now 2016-Sep-25 00:18 UTC.
Position N 47°52' E 035°06'.

Length 108 m; draft 2.2 m.

Type: Cargo ship. MMSI: 272059000.

Date/timePositionNaut miles runAvg speedWind from/ knotsBaromVisibWave heightAir tempDewpointWater temp
2016-Sep-24 22:32N 47°52' E 035°06'0 0.0
2016-Sep-24 21:20N 47°52' E 035°06'0 0.0
2016-Sep-24 19:32N 47°52' E 035°06'0 0.0
2016-Sep-24 18:32N 47°52' E 035°06'0 0.0
2016-Sep-24 17:32N 47°52' E 035°06'0 0.0
2016-Sep-24 16:32N 47°52' E 035°06'0 0.0
2016-Sep-24 14:32N 47°52' E 035°06'0 0.0
2016-Sep-24 12:32N 47°52' E 035°06'0 0.1
2016-Sep-24 10:33N 47°52' E 035°06'0 0.1
2016-Sep-24 09:33N 47°52' E 035°06'3 0.5
2016-Sep-24 03:33N 47°49' E 035°08'1 1.3
2016-Sep-24 02:33N 47°49' E 035°09'0 0.0
2016-Sep-24 01:33N 47°49' E 035°09'0 0.0
2016-Sep-24 00:33N 47°49' E 035°09'0 0.0
2016-Sep-23 19:33N 47°49' E 035°09'0 0.0
2016-Sep-23 17:33N 47°49' E 035°09'0 0.0
2016-Sep-23 16:33N 47°49' E 035°09'0 0.0
2016-Sep-23 15:33N 47°49' E 035°09'0 0.0
2016-Sep-23 13:33N 47°49' E 035°09'146 5.8
2016-Sep-22 12:12N 46°32' E 032°06'  

Dump ship's entire track history